Check out our new BloomSky Weather System.

Active alerts


No alerts


Thunder radar  blitzortung!


Rain radar more information rain snow radar


Visit our other weather sites:

Template documentation
and downloads

And another site



Weather Underground History page Text

Daily Summary for January 23, 2017 Units:  English    Metric   Both
« Previous Day
Next Day »
Daily Weekly Monthly Yearly Custom
  High: Low: Average:
Temperature: 73.0 °F 45.7 °F 58.6 °F
Dew Point: 46.2 °F 35.1 °F 41.2 °F
Humidity: 80 % 30 % 55 %
Wind Speed: 7.0 mph 0.0 mph 1.1 mph
Wind Gust: 10.0 mph - -
Wind:- - WSW
Pressure: 30.03 in 29.85 in -
Precipitation: 0.00 in    
Historical Graphs
 
 
Tabular Data for January 23, 2017
Time Temperature Dew Point Pressure Wind Wind Speed Wind Gust Humidity Rainfall Rate (Hourly)
00:03 58.3 °F 41.7 °F 29.90 in SW 1.0 mph 9.0 mph 54 % 0.00 in
00:08 57.9 °F 41.4 °F 29.90 in Calm   9.0 mph 54 % 0.00 in
00:13 57.7 °F 41.7 °F 29.91 in Calm   8.0 mph 55 % 0.00 in
00:18 57.4 °F 41.4 °F 29.91 in Calm   8.0 mph 55 % 0.00 in
00:23 57.2 °F 41.7 °F 29.91 in NNW 2.0 mph 5.0 mph 56 % 0.00 in
00:29 57.0 °F 41.5 °F 29.91 in NW 1.0 mph 5.0 mph 56 % 0.00 in
00:34 57.0 °F 41.9 °F 29.92 in WNW 1.0 mph 5.0 mph 57 % 0.00 in
00:39 56.8 °F 41.7 °F 29.92 in WNW 5.0 mph 5.0 mph 57 % 0.00 in
00:44 56.7 °F 41.5 °F 29.92 in WNW 1.0 mph 5.0 mph 57 % 0.00 in
00:50 56.5 °F 41.4 °F 29.91 in NW 1.0 mph 5.0 mph 57 % 0.00 in
00:55 56.3 °F 41.7 °F 29.92 in NNW 1.0 mph 6.0 mph 58 % 0.00 in
01:00 56.1 °F 41.5 °F 29.91 in WNW 1.0 mph 6.0 mph 58 % 0.00 in
01:05 56.1 °F 41.5 °F 29.91 in NNW 1.0 mph 6.0 mph 58 % 0.00 in
01:10 55.9 °F 41.4 °F 29.91 in Calm   5.0 mph 58 % 0.00 in
01:15 55.8 °F 41.7 °F 29.91 in WNW 2.0 mph 5.0 mph 59 % 0.00 in
01:20 55.6 °F 41.5 °F 29.91 in NNW 1.0 mph 5.0 mph 59 % 0.00 in
01:25 55.4 °F 41.4 °F 29.91 in NW 1.0 mph 5.0 mph 59 % 0.00 in
01:30 55.0 °F 41.4 °F 29.91 in WNW 1.0 mph 4.0 mph 60 % 0.00 in
01:35 55.0 °F 41.4 °F 29.92 in West 1.0 mph 4.0 mph 60 % 0.00 in
01:40 54.7 °F 41.5 °F 29.92 in Calm   5.0 mph 61 % 0.00 in
01:45 54.5 °F 41.4 °F 29.92 in ENE 1.0 mph 5.0 mph 61 % 0.00 in
01:50 54.3 °F 41.2 °F 29.92 in Calm   5.0 mph 61 % 0.00 in
01:55 54.1 °F 41.4 °F 29.92 in Calm   5.0 mph 62 % 0.00 in
02:00 54.0 °F 41.2 °F 29.92 in Calm   5.0 mph 62 % 0.00 in
02:06 53.8 °F 41.0 °F 29.92 in West 2.0 mph 2.0 mph 62 % 0.00 in
02:11 53.6 °F 41.4 °F 29.92 in Calm   3.0 mph 63 % 0.00 in
02:16 53.2 °F 41.0 °F 29.92 in Calm   3.0 mph 63 % 0.00 in
02:21 53.1 °F 41.2 °F 29.92 in Calm   3.0 mph 64 % 0.00 in
02:26 52.9 °F 41.0 °F 29.92 in Calm   2.0 mph 64 % 0.00 in
02:31 52.9 °F 41.0 °F 29.92 in Calm   2.0 mph 64 % 0.00 in
02:36 52.5 °F 41.2 °F 29.92 in Calm   3.0 mph 65 % 0.00 in
02:41 52.3 °F 41.0 °F 29.92 in WNW 1.0 mph 3.0 mph 65 % 0.00 in
02:46 52.2 °F 41.2 °F 29.92 in Calm   3.0 mph 66 % 0.00 in
02:51 52.0 °F 41.0 °F 29.92 in Calm   3.0 mph 66 % 0.00 in
02:56 51.6 °F 41.0 °F 29.92 in Calm   3.0 mph 67 % 0.00 in
03:01 51.3 °F 40.6 °F 29.93 in Calm   2.0 mph 67 % 0.00 in
03:06 51.1 °F 40.8 °F 29.93 in Calm   2.0 mph 68 % 0.00 in
03:11 50.7 °F 40.5 °F 29.93 in Calm   1.0 mph 68 % 0.00 in
03:16 50.5 °F 40.8 °F 29.93 in Calm   1.0 mph 69 % 0.00 in
03:21 50.4 °F 40.6 °F 29.93 in Calm   1.0 mph 69 % 0.00 in
03:26 50.4 °F 40.6 °F 29.93 in Calm   2.0 mph 69 % 0.00 in
03:31 50.2 °F 40.8 °F 29.93 in Calm   2.0 mph 70 % 0.00 in
03:36 49.8 °F 40.5 °F 29.93 in Calm   2.0 mph 70 % 0.00 in
03:41 49.8 °F 40.8 °F 29.93 in Calm   1.0 mph 71 % 0.00 in
03:46 49.8 °F 40.8 °F 29.93 in Calm   2.0 mph 71 % 0.00 in
03:51 49.6 °F 40.6 °F 29.93 in Calm   2.0 mph 71 % 0.00 in
03:56 49.3 °F 40.3 °F 29.93 in Calm   2.0 mph 71 % 0.00 in
04:01 49.1 °F 40.5 °F 29.93 in SW 1.0 mph 1.0 mph 72 % 0.00 in
04:06 48.9 °F 40.3 °F 29.94 in Calm   1.0 mph 72 % 0.00 in
04:11 48.7 °F 40.5 °F 29.93 in WSW 1.0 mph 1.0 mph 73 % 0.00 in
04:16 48.9 °F 40.6 °F 29.93 in Calm   2.0 mph 73 % 0.00 in
04:21 48.9 °F 40.6 °F 29.93 in West 1.0 mph 2.0 mph 73 % 0.00 in
04:26 48.7 °F 40.5 °F 29.93 in Calm   2.0 mph 73 % 0.00 in
04:31 48.6 °F 40.3 °F 29.93 in Calm   1.0 mph 73 % 0.00 in
04:36 48.2 °F 40.3 °F 29.93 in Calm   1.0 mph 74 % 0.00 in
04:41 47.8 °F 40.3 °F 29.94 in Calm   1.0 mph 75 % 0.00 in
04:46 47.5 °F 40.3 °F 29.94 in Calm   1.0 mph 76 % 0.00 in
04:51 47.3 °F 40.1 °F 29.94 in Calm   1.0 mph 76 % 0.00 in
04:56 47.3 °F 40.5 °F 29.94 in Calm   1.0 mph 77 % 0.00 in
05:01 47.1 °F 40.3 °F 29.94 in Calm   1.0 mph 77 % 0.00 in
05:06 46.9 °F 40.1 °F 29.94 in Calm   1.0 mph 77 % 0.00 in
05:11 46.8 °F 40.3 °F 29.94 in Calm   1.0 mph 78 % 0.00 in
05:16 46.6 °F 40.1 °F 29.94 in Calm   1.0 mph 78 % 0.00 in
05:21 46.2 °F 39.7 °F 29.94 in Calm   1.0 mph 78 % 0.00 in
05:26 46.0 °F 39.9 °F 29.94 in SW 1.0 mph 1.0 mph 79 % 0.00 in
05:31 45.9 °F 39.7 °F 29.94 in Calm   1.0 mph 79 % 0.00 in
05:36 45.9 °F 40.1 °F 29.94 in Calm   1.0 mph 80 % 0.00 in
05:41 46.0 °F 40.3 °F 29.94 in Calm   1.0 mph 80 % 0.00 in
05:47 46.0 °F 40.3 °F 29.94 in Calm   1.0 mph 80 % 0.00 in
05:51 46.0 °F 39.9 °F 29.95 in Calm   1.0 mph 79 % 0.00 in
05:57 45.9 °F 39.7 °F 29.95 in Calm   1.0 mph 79 % 0.00 in
06:02 45.7 °F 39.9 °F 29.94 in Calm   1.0 mph 80 % 0.00 in
06:07 45.9 °F 40.1 °F 29.94 in Calm   1.0 mph 80 % 0.00 in
06:12 46.2 °F 40.1 °F 29.95 in WNW 1.0 mph 2.0 mph 79 % 0.00 in
06:17 46.6 °F 40.1 °F 29.95 in Calm   2.0 mph 78 % 0.00 in
06:22 46.9 °F 40.1 °F 29.95 in WSW 1.0 mph 3.0 mph 77 % 0.00 in
06:27 47.1 °F 39.9 °F 29.95 in WNW 1.0 mph 4.0 mph 76 % 0.00 in
06:32 47.1 °F 39.9 °F 29.95 in Calm   4.0 mph 76 % 0.00 in
06:37 47.1 °F 39.9 °F 29.96 in Calm   4.0 mph 76 % 0.00 in
06:42 47.1 °F 39.9 °F 29.96 in Calm   3.0 mph 76 % 0.00 in
06:47 46.9 °F 39.7 °F 29.96 in Calm   2.0 mph 76 % 0.00 in
06:52 46.8 °F 39.6 °F 29.96 in Calm   2.0 mph 76 % 0.00 in
06:57 46.8 °F 39.6 °F 29.96 in Calm   2.0 mph 76 % 0.00 in
07:02 46.6 °F 39.7 °F 29.96 in Calm   4.0 mph 77 % 0.00 in
07:07 46.4 °F 39.6 °F 29.96 in West 1.0 mph 4.0 mph 77 % 0.00 in
07:12 46.6 °F 39.7 °F 29.97 in WNW 3.0 mph 4.0 mph 77 % 0.00 in
07:17 46.6 °F 39.7 °F 29.97 in WSW 1.0 mph 3.0 mph 77 % 0.00 in
07:22 46.6 °F 39.7 °F 29.97 in Calm   3.0 mph 77 % 0.00 in
07:27 46.8 °F 39.6 °F 29.97 in SW 1.0 mph 3.0 mph 76 % 0.00 in
07:32 47.1 °F 39.6 °F 29.97 in Calm   4.0 mph 75 % 0.00 in
07:37 47.5 °F 39.6 °F 29.97 in Calm   4.0 mph 74 % 0.00 in
07:42 47.8 °F 39.9 °F 29.97 in WNW 1.0 mph 4.0 mph 74 % 0.00 in
07:47 48.2 °F 39.9 °F 29.97 in Calm   4.0 mph 73 % 0.00 in
07:52 48.6 °F 40.3 °F 29.97 in Calm   4.0 mph 73 % 0.00 in
07:57 49.1 °F 40.5 °F 29.98 in NW 1.0 mph 4.0 mph 72 % 0.00 in
08:02 49.6 °F 41.0 °F 29.98 in Calm   4.0 mph 72 % 0.00 in
08:07 50.2 °F 40.8 °F 29.98 in Calm   4.0 mph 70 % 0.00 in
08:12 50.5 °F 41.2 °F 29.99 in North 3.0 mph 4.0 mph 70 % 0.00 in
08:17 51.1 °F 41.2 °F 29.99 in Calm   5.0 mph 69 % 0.00 in
08:22 51.3 °F 41.0 °F 29.99 in WSW 3.0 mph 5.0 mph 68 % 0.00 in
08:27 51.6 °F 41.4 °F 29.99 in Calm   5.0 mph 68 % 0.00 in
08:32 52.2 °F 41.5 °F 29.99 in NW 1.0 mph 5.0 mph 67 % 0.00 in
08:37 52.5 °F 41.2 °F 30.00 in WNW 2.0 mph 5.0 mph 65 % 0.00 in
08:42 52.7 °F 40.8 °F 30.00 in WSW 1.0 mph 7.0 mph 64 % 0.00 in
08:47 52.9 °F 41.4 °F 30.01 in NW 2.0 mph 7.0 mph 65 % 0.00 in
08:52 53.4 °F 40.6 °F 30.01 in WNW 4.0 mph 7.0 mph 62 % 0.00 in
08:57 53.4 °F 40.6 °F 30.01 in Calm   9.0 mph 62 % 0.00 in
09:02 53.8 °F 39.7 °F 30.01 in NW 1.0 mph 9.0 mph 59 % 0.00 in
09:07 54.1 °F 40.1 °F 30.01 in West 4.0 mph 9.0 mph 59 % 0.00 in
09:12 54.7 °F 40.6 °F 30.01 in NNW 5.0 mph 10.0 mph 59 % 0.00 in
09:17 54.9 °F 40.3 °F 30.02 in Calm   10.0 mph 58 % 0.00 in
09:22 55.2 °F 40.3 °F 30.02 in NW 2.0 mph 10.0 mph 57 % 0.00 in
09:28 55.8 °F 39.9 °F 30.02 in NNW 3.0 mph 7.0 mph 55 % 0.00 in
09:33 55.9 °F 39.9 °F 30.02 in NNW 1.0 mph 7.0 mph 55 % 0.00 in
09:38 56.7 °F 40.3 °F 30.02 in NW 3.0 mph 7.0 mph 54 % 0.00 in
09:43 56.8 °F 40.8 °F 30.03 in Calm   7.0 mph 55 % 0.00 in
09:48 57.2 °F 39.2 °F 30.02 in Calm   7.0 mph 51 % 0.00 in
09:53 57.2 °F 38.7 °F 30.02 in West 1.0 mph 8.0 mph 50 % 0.00 in
09:58 57.6 °F 39.0 °F 30.02 in NNW 1.0 mph 8.0 mph 50 % 0.00 in
10:03 58.3 °F 38.7 °F 30.02 in West 2.0 mph 8.0 mph 48 % 0.00 in
10:08 58.6 °F 38.5 °F 30.02 in NW 2.0 mph 8.0 mph 47 % 0.00 in
10:13 59.0 °F 37.8 °F 30.02 in NW 3.0 mph 6.0 mph 45 % 0.00 in
10:18 58.8 °F 37.6 °F 30.02 in NW 2.0 mph 8.0 mph 45 % 0.00 in
10:23 59.2 °F 37.9 °F 30.02 in NNW 4.0 mph 8.0 mph 45 % 0.00 in
10:28 59.7 °F 37.8 °F 30.02 in WNW 4.0 mph 8.0 mph 44 % 0.00 in
10:33 60.1 °F 38.1 °F 30.03 in WNW 1.0 mph 7.0 mph 44 % 0.00 in
10:38 60.4 °F 37.2 °F 30.02 in NW 4.0 mph 7.0 mph 42 % 0.00 in
10:43 60.8 °F 37.6 °F 30.02 in NW 7.0 mph 7.0 mph 42 % 0.00 in
10:48 61.0 °F 37.8 °F 30.02 in NNW 4.0 mph 8.0 mph 42 % 0.00 in
10:53 61.2 °F 37.9 °F 30.02 in NW 6.0 mph 8.0 mph 42 % 0.00 in
10:58 61.3 °F 37.4 °F 30.01 in North 1.0 mph 8.0 mph 41 % 0.00 in
11:03 62.1 °F 36.1 °F 30.01 in WNW 3.0 mph 7.0 mph 38 % 0.00 in
11:08 62.4 °F 37.2 °F 30.01 in NW 1.0 mph 8.0 mph 39 % 0.00 in
11:13 62.8 °F 36.9 °F 30.01 in NNW 3.0 mph 8.0 mph 38 % 0.00 in
11:18 63.7 °F 37.6 °F 30.00 in NW 2.0 mph 8.0 mph 38 % 0.00 in
11:23 64.0 °F 37.2 °F 30.00 in NNW 5.0 mph 7.0 mph 37 % 0.00 in
11:28 63.7 °F 36.9 °F 30.00 in Calm   7.0 mph 37 % 0.00 in
11:33 64.2 °F 36.0 °F 29.99 in WNW 2.0 mph 9.0 mph 35 % 0.00 in
11:38 64.2 °F 35.2 °F 29.99 in West 2.0 mph 9.0 mph 34 % 0.00 in
11:43 64.6 °F 37.0 °F 29.99 in Calm   9.0 mph 36 % 0.00 in
11:48 65.7 °F 35.8 °F 29.99 in East 1.0 mph 6.0 mph 33 % 0.00 in
11:53 65.7 °F 36.5 °F 29.98 in NNE 1.0 mph 6.0 mph 34 % 0.00 in
11:58 66.0 °F 38.3 °F 29.97 in Calm   6.0 mph 36 % 0.00 in
12:03 66.6 °F 36.5 °F 29.97 in SW 1.0 mph 6.0 mph 33 % 0.00 in
12:08 66.6 °F 35.1 °F 29.97 in NNW 3.0 mph 5.0 mph 31 % 0.00 in
12:13 66.7 °F 36.0 °F 29.97 in WNW 2.0 mph 7.0 mph 32 % 0.00 in
12:18 66.9 °F 36.1 °F 29.96 in NW 6.0 mph 7.0 mph 32 % 0.00 in
12:23 67.1 °F 37.0 °F 29.96 in SW 5.0 mph 7.0 mph 33 % 0.00 in
12:28 67.3 °F 38.7 °F 29.95 in NW 2.0 mph 7.0 mph 35 % 0.00 in
12:33 67.6 °F 37.6 °F 29.94 in NW 3.0 mph 7.0 mph 33 % 0.00 in
12:38 68.4 °F 38.1 °F 29.94 in WNW 1.0 mph 7.0 mph 33 % 0.00 in
12:43 68.2 °F 37.9 °F 29.94 in SSW 3.0 mph 6.0 mph 33 % 0.00 in
12:48 68.5 °F 37.6 °F 29.94 in NW 2.0 mph 6.0 mph 32 % 0.00 in
12:53 68.7 °F 38.5 °F 29.93 in WSW 3.0 mph 6.0 mph 33 % 0.00 in
12:58 69.6 °F 39.2 °F 29.92 in West 1.0 mph 7.0 mph 33 % 0.00 in
13:03 69.3 °F 37.4 °F 29.92 in West 2.0 mph 7.0 mph 31 % 0.00 in
13:08 68.7 °F 36.9 °F 29.92 in West 3.0 mph 7.0 mph 31 % 0.00 in
13:13 69.1 °F 38.8 °F 29.92 in Calm   7.0 mph 33 % 0.00 in
13:18 69.1 °F 37.2 °F 29.91 in SW 2.0 mph 7.0 mph 31 % 0.00 in
13:24 69.6 °F 38.5 °F 29.91 in West 3.0 mph 7.0 mph 32 % 0.00 in
13:29 69.6 °F 37.6 °F 29.91 in West 2.0 mph 6.0 mph 31 % 0.00 in
13:34 70.0 °F 37.9 °F 29.91 in NW 4.0 mph 6.0 mph 31 % 0.00 in
13:39 69.4 °F 37.4 °F 29.90 in WNW 2.0 mph 7.0 mph 31 % 0.00 in
13:44 69.3 °F 37.4 °F 29.90 in West 2.0 mph 7.0 mph 31 % 0.00 in
13:49 69.8 °F 40.1 °F 29.89 in West 2.0 mph 8.0 mph 34 % 0.00 in
13:54 70.3 °F 38.3 °F 29.89 in WNW 1.0 mph 8.0 mph 31 % 0.00 in
13:59 70.9 °F 41.9 °F 29.89 in SSW 3.0 mph 9.0 mph 35 % 0.00 in
14:04 72.1 °F 41.4 °F 29.89 in WNW 3.0 mph 9.0 mph 33 % 0.00 in
14:09 71.8 °F 39.6 °F 29.89 in NNW 5.0 mph 9.0 mph 31 % 0.00 in
14:14 71.2 °F 39.9 °F 29.89 in North 1.0 mph 6.0 mph 32 % 0.00 in
14:19 70.5 °F 37.6 °F 29.89 in NW 1.0 mph 6.0 mph 30 % 0.00 in
14:24 70.2 °F 38.1 °F 29.88 in North 1.0 mph 7.0 mph 31 % 0.00 in
14:29 70.9 °F 40.3 °F 29.89 in WNW 2.0 mph 7.0 mph 33 % 0.00 in
14:34 71.8 °F 41.2 °F 29.88 in SW 2.0 mph 7.0 mph 33 % 0.00 in
14:39 72.0 °F 39.7 °F 29.88 in WSW 1.0 mph 7.0 mph 31 % 0.00 in
14:44 71.8 °F 40.3 °F 29.88 in West 3.0 mph 6.0 mph 32 % 0.00 in
14:49 72.3 °F 40.8 °F 29.88 in WSW 6.0 mph 6.0 mph 32 % 0.00 in
14:54 72.1 °F 39.9 °F 29.88 in Calm   6.0 mph 31 % 0.00 in
14:59 72.1 °F 41.4 °F 29.89 in SSW 2.0 mph 6.0 mph 33 % 0.00 in
15:04 72.5 °F 41.7 °F 29.88 in Calm   6.0 mph 33 % 0.00 in
15:09 72.7 °F 40.3 °F 29.88 in NW 3.0 mph 6.0 mph 31 % 0.00 in
15:14 72.7 °F 40.3 °F 29.88 in SW 4.0 mph 6.0 mph 31 % 0.00 in
15:19 72.9 °F 40.5 °F 29.88 in WNW 1.0 mph 6.0 mph 31 % 0.00 in
15:24 72.9 °F 40.5 °F 29.88 in SW 3.0 mph 6.0 mph 31 % 0.00 in
15:29 72.9 °F 42.8 °F 29.88 in WSW 3.0 mph 6.0 mph 34 % 0.00 in
15:34 73.0 °F 40.6 °F 29.88 in West 1.0 mph 6.0 mph 31 % 0.00 in
15:39 72.9 °F 41.4 °F 29.88 in SW 2.0 mph 6.0 mph 32 % 0.00 in
15:44 72.7 °F 41.2 °F 29.88 in Calm   6.0 mph 32 % 0.00 in
15:49 72.5 °F 40.1 °F 29.88 in West 1.0 mph 6.0 mph 31 % 0.00 in
15:54 72.3 °F 40.8 °F 29.88 in SSW 2.0 mph 7.0 mph 32 % 0.00 in
15:59 72.5 °F 41.0 °F 29.88 in West 4.0 mph 7.0 mph 32 % 0.00 in
16:04 72.7 °F 40.3 °F 29.88 in WNW 5.0 mph 7.0 mph 31 % 0.00 in
16:09 72.3 °F 39.9 °F 29.88 in ENE 2.0 mph 6.0 mph 31 % 0.00 in
16:14 72.3 °F 40.8 °F 29.88 in SSW 2.0 mph 6.0 mph 32 % 0.00 in
16:19 72.1 °F 39.9 °F 29.88 in Calm   6.0 mph 31 % 0.00 in
16:24 71.8 °F 40.3 °F 29.88 in WSW 1.0 mph 6.0 mph 32 % 0.00 in
16:29 71.8 °F 40.3 °F 29.88 in SW 2.0 mph 6.0 mph 32 % 0.00 in
16:34 71.8 °F 40.3 °F 29.88 in SSW 1.0 mph 6.0 mph 32 % 0.00 in
16:39 71.8 °F 40.3 °F 29.88 in SW 1.0 mph 6.0 mph 32 % 0.00 in
16:44 71.6 °F 40.1 °F 29.88 in SSW 2.0 mph 6.0 mph 32 % 0.00 in
16:49 71.4 °F 40.1 °F 29.87 in Calm   4.0 mph 32 % 0.00 in
16:54 71.2 °F 39.9 °F 29.87 in SW 1.0 mph 5.0 mph 32 % 0.00 in
16:59 71.2 °F 41.4 °F 29.87 in WSW 1.0 mph 5.0 mph 34 % 0.00 in
17:04 71.1 °F 39.7 °F 29.87 in WSW 1.0 mph 5.0 mph 32 % 0.00 in
17:09 70.7 °F 40.1 °F 29.87 in Calm   4.0 mph 33 % 0.00 in
17:14 70.7 °F 40.1 °F 29.86 in Calm   3.0 mph 33 % 0.00 in
17:19 70.3 °F 39.9 °F 29.86 in Calm   3.0 mph 33 % 0.00 in
17:24 70.2 °F 41.2 °F 29.86 in Calm   3.0 mph 35 % 0.00 in
17:29 69.4 °F 40.6 °F 29.86 in Calm   1.0 mph 35 % 0.00 in
17:34 68.7 °F 40.6 °F 29.86 in Calm   1.0 mph 36 % 0.00 in
17:39 67.8 °F 41.4 °F 29.86 in Calm   1.0 mph 38 % 0.00 in
17:44 66.9 °F 41.9 °F 29.86 in Calm   1.0 mph 40 % 0.00 in
17:49 66.0 °F 42.3 °F 29.86 in SSW 1.0 mph 1.0 mph 42 % 0.00 in
17:54 65.1 °F 42.1 °F 29.86 in Calm   1.0 mph 43 % 0.00 in
17:59 64.6 °F 41.5 °F 29.86 in Calm   1.0 mph 43 % 0.00 in
18:04 63.7 °F 42.4 °F 29.86 in Calm   1.0 mph 46 % 0.00 in
18:09 63.0 °F 42.4 °F 29.87 in Calm   1.0 mph 47 % 0.00 in
18:14 62.4 °F 42.4 °F 29.87 in Calm     48 % 0.00 in
18:19 62.2 °F 42.8 °F 29.87 in Calm     49 % 0.00 in
18:24 62.2 °F 42.3 °F 29.87 in Calm   1.0 mph 48 % 0.00 in
18:29 61.9 °F 43.0 °F 29.87 in Calm   1.0 mph 50 % 0.00 in
18:35 61.9 °F 43.5 °F 29.87 in Calm   1.0 mph 51 % 0.00 in
18:39 61.5 °F 43.2 °F 29.87 in Calm   1.0 mph 51 % 0.00 in
18:45 61.3 °F 43.0 °F 29.87 in Calm   1.0 mph 51 % 0.00 in
18:50 61.0 °F 44.2 °F 29.87 in Calm   1.0 mph 54 % 0.00 in
18:55 60.3 °F 43.5 °F 29.88 in Calm   1.0 mph 54 % 0.00 in
19:00 59.7 °F 43.5 °F 29.88 in Calm   1.0 mph 55 % 0.00 in
19:05 59.4 °F 44.1 °F 29.88 in Calm   1.0 mph 57 % 0.00 in
19:10 58.8 °F 43.7 °F 29.88 in Calm   1.0 mph 57 % 0.00 in
19:15 58.3 °F 43.2 °F 29.87 in Calm   1.0 mph 57 % 0.00 in
19:20 57.9 °F 43.7 °F 29.87 in Calm     59 % 0.00 in
19:25 57.9 °F 44.6 °F 29.87 in Calm   1.0 mph 61 % 0.00 in
19:30 58.5 °F 44.2 °F 29.87 in Calm   1.0 mph 59 % 0.00 in
19:35 58.5 °F 44.2 °F 29.87 in Calm   1.0 mph 59 % 0.00 in
19:40 57.9 °F 44.1 °F 29.87 in Calm   1.0 mph 60 % 0.00 in
19:45 57.6 °F 44.2 °F 29.87 in Calm     61 % 0.00 in
19:50 57.4 °F 45.0 °F 29.87 in Calm   1.0 mph 63 % 0.00 in
19:55 57.6 °F 45.1 °F 29.87 in Calm   1.0 mph 63 % 0.00 in
20:00 57.7 °F 45.3 °F 29.87 in Calm   1.0 mph 63 % 0.00 in
20:05 57.7 °F 45.3 °F 29.87 in Calm   1.0 mph 63 % 0.00 in
20:10 57.6 °F 45.1 °F 29.87 in Calm   1.0 mph 63 % 0.00 in
20:15 57.6 °F 45.1 °F 29.87 in Calm     63 % 0.00 in
20:20 57.4 °F 45.3 °F 29.87 in Calm   1.0 mph 64 % 0.00 in
20:25 57.2 °F 45.5 °F 29.87 in Calm   1.0 mph 65 % 0.00 in
20:30 57.2 °F 45.5 °F 29.87 in Calm   1.0 mph 65 % 0.00 in
20:35 57.0 °F 45.9 °F 29.87 in Calm   1.0 mph 66 % 0.00 in
20:40 56.7 °F 45.5 °F 29.87 in Calm   1.0 mph 66 % 0.00 in
20:45 56.5 °F 46.0 °F 29.87 in Calm   1.0 mph 68 % 0.00 in
20:50 56.3 °F 45.9 °F 29.86 in Calm   1.0 mph 68 % 0.00 in
20:55 56.1 °F 45.7 °F 29.86 in Calm   1.0 mph 68 % 0.00 in
21:00 56.1 °F 45.7 °F 29.87 in Calm   1.0 mph 68 % 0.00 in
21:05 55.9 °F 45.5 °F 29.86 in Calm   1.0 mph 68 % 0.00 in
21:10 55.8 °F 45.7 °F 29.86 in Calm   1.0 mph 69 % 0.00 in
21:15 55.6 °F 45.5 °F 29.87 in Calm     69 % 0.00 in
21:20 55.2 °F 45.7 °F 29.87 in Calm     70 % 0.00 in
21:25 55.2 °F 46.0 °F 29.87 in SSE 1.0 mph 1.0 mph 71 % 0.00 in
21:31 55.8 °F 46.0 °F 29.87 in Calm   1.0 mph 70 % 0.00 in
21:36 55.9 °F 45.5 °F 29.87 in SSE 1.0 mph 1.0 mph 68 % 0.00 in
21:41 56.5 °F 45.7 °F 29.87 in South 1.0 mph 1.0 mph 67 % 0.00 in
21:46 56.8 °F 45.7 °F 29.87 in Calm   1.0 mph 66 % 0.00 in
21:51 57.0 °F 45.3 °F 29.87 in SSE 1.0 mph 1.0 mph 65 % 0.00 in
21:56 57.2 °F 45.5 °F 29.87 in Calm   1.0 mph 65 % 0.00 in
22:01 57.2 °F 45.5 °F 29.87 in South 1.0 mph 2.0 mph 65 % 0.00 in
22:06 57.4 °F 45.7 °F 29.87 in SSW 4.0 mph 4.0 mph 65 % 0.00 in
22:11 57.9 °F 45.9 °F 29.88 in South 2.0 mph 4.0 mph 64 % 0.00 in
22:16 58.3 °F 45.7 °F 29.88 in SSW 1.0 mph 4.0 mph 63 % 0.00 in
22:21 58.3 °F 45.7 °F 29.88 in SSE 1.0 mph 4.0 mph 63 % 0.00 in
22:26 58.3 °F 45.7 °F 29.87 in SSE 2.0 mph 4.0 mph 63 % 0.00 in
22:31 58.3 °F 45.7 °F 29.87 in South 1.0 mph 4.0 mph 63 % 0.00 in
22:36 58.3 °F 45.7 °F 29.87 in South 2.0 mph 4.0 mph 63 % 0.00 in
22:42 58.3 °F 46.2 °F 29.87 in South 1.0 mph 4.0 mph 64 % 0.00 in
22:47 58.3 °F 46.2 °F 29.87 in South 3.0 mph 4.0 mph 64 % 0.00 in
22:52 58.3 °F 46.2 °F 29.87 in South 1.0 mph 4.0 mph 64 % 0.00 in
22:57 58.1 °F 46.0 °F 29.87 in SSE 2.0 mph 4.0 mph 64 % 0.00 in
23:02 57.9 °F 45.9 °F 29.87 in South 2.0 mph 4.0 mph 64 % 0.00 in
23:07 57.9 °F 45.9 °F 29.87 in South 1.0 mph 4.0 mph 64 % 0.00 in
23:12 57.9 °F 45.9 °F 29.86 in SSE 2.0 mph 4.0 mph 64 % 0.00 in
23:17 57.7 °F 45.7 °F 29.86 in Calm   4.0 mph 64 % 0.00 in
23:22 57.7 °F 46.0 °F 29.86 in Calm   4.0 mph 65 % 0.00 in
23:27 57.6 °F 45.5 °F 29.86 in SSW 2.0 mph 4.0 mph 64 % 0.00 in
23:32 57.6 °F 45.5 °F 29.86 in SSW 2.0 mph 4.0 mph 64 % 0.00 in
23:37 57.4 °F 45.3 °F 29.86 in South 2.0 mph 4.0 mph 64 % 0.00 in
23:42 57.0 °F 45.0 °F 29.86 in SSW 2.0 mph 3.0 mph 64 % 0.00 in
23:47 57.2 °F 45.1 °F 29.86 in SSE 1.0 mph 5.0 mph 64 % 0.00 in
23:52 57.2 °F 45.1 °F 29.86 in South 2.0 mph 5.0 mph 64 % 0.00 in
23:57 57.0 °F 45.0 °F 29.85 in SSW 2.0 mph 5.0 mph 64 % 0.00 in
Spring, Texas: Villages of Bridgestone
Compliments of Weather Underground - 2.75 mb

Script developed by  Jim McMurry - jmcmurry@mwt.net Adapted for the template by  Wim van der Kuil - Leuven-Template.eu

You find our weather info also at:

UK Metoffice

WeatherCloud

Weather Underground

Mid-South Weather Network

AWEKAS

Citizen Weather Observer Program (CWOP)

HAMweather, WeatherForYou, PWS Weather

Equipment we use:

Weather-station
Davis Vantage Vue

Weather-program
Meteohub

Weather-server
Debian 7.9 x86 (Guest)

Provider
DreamHost

Davis Vantage Vue

Meteohub

Debian 7.9 x86 (Guest)

DreamHost